sensor_id;sensor_type;location;lat;lon;timestamp;temperature;humidity
50758;DHT22;36732;47.980;11.652;2023-03-11T00:00:19;9.00;54.70
50758;DHT22;36732;47.980;11.652;2023-03-11T00:02:47;9.00;54.70
50758;DHT22;36732;47.980;11.652;2023-03-11T00:05:24;8.90;54.50
50758;DHT22;36732;47.980;11.652;2023-03-11T00:07:52;8.90;54.30
50758;DHT22;36732;47.980;11.652;2023-03-11T00:10:21;8.90;54.30
50758;DHT22;36732;47.980;11.652;2023-03-11T00:12:52;8.90;53.60
50758;DHT22;36732;47.980;11.652;2023-03-11T00:15:19;8.90;53.30
50758;DHT22;36732;47.980;11.652;2023-03-11T00:17:46;8.80;52.80
50758;DHT22;36732;47.980;11.652;2023-03-11T00:20:37;8.80;52.70
50758;DHT22;36732;47.980;11.652;2023-03-11T00:23:05;8.80;51.80
50758;DHT22;36732;47.980;11.652;2023-03-11T00:25:33;8.80;52.50
50758;DHT22;36732;47.980;11.652;2023-03-11T00:28:01;8.80;52.30
50758;DHT22;36732;47.980;11.652;2023-03-11T00:30:28;8.70;52.20
50758;DHT22;36732;47.980;11.652;2023-03-11T00:32:56;8.70;52.00
50758;DHT22;36732;47.980;11.652;2023-03-11T00:35:26;8.70;51.50
50758;DHT22;36732;47.980;11.652;2023-03-11T00:38:00;8.70;51.30
50758;DHT22;36732;47.980;11.652;2023-03-11T00:40:29;8.70;51.30
50758;DHT22;36732;47.980;11.652;2023-03-11T00:42:56;8.70;51.40
50758;DHT22;36732;47.980;11.652;2023-03-11T00:45:22;8.70;51.00
50758;DHT22;36732;47.980;11.652;2023-03-11T00:47:49;8.70;51.00
50758;DHT22;36732;47.980;11.652;2023-03-11T00:50:21;8.70;51.10
50758;DHT22;36732;47.980;11.652;2023-03-11T00:52:49;8.70;50.80
50758;DHT22;36732;47.980;11.652;2023-03-11T00:55:20;8.60;50.80
50758;DHT22;36732;47.980;11.652;2023-03-11T00:57:47;8.60;50.60
50758;DHT22;36732;47.980;11.652;2023-03-11T01:00:17;8.60;50.50
50758;DHT22;36732;47.980;11.652;2023-03-11T01:02:44;8.60;50.60
50758;DHT22;36732;47.980;11.652;2023-03-11T01:05:10;8.60;50.60
50758;DHT22;36732;47.980;11.652;2023-03-11T01:07:37;8.60;50.50
50758;DHT22;36732;47.980;11.652;2023-03-11T01:10:04;8.60;50.30
50758;DHT22;36732;47.980;11.652;2023-03-11T01:12:31;8.60;50.30
50758;DHT22;36732;47.980;11.652;2023-03-11T01:14:57;8.60;50.20
50758;DHT22;36732;47.980;11.652;2023-03-11T01:17:23;8.60;50.20
50758;DHT22;36732;47.980;11.652;2023-03-11T01:19:48;8.50;50.20
50758;DHT22;36732;47.980;11.652;2023-03-11T01:22:15;8.50;50.40
50758;DHT22;36732;47.980;11.652;2023-03-11T01:24:41;8.50;50.30
50758;DHT22;36732;47.980;11.652;2023-03-11T01:27:07;8.50;50.30
50758;DHT22;36732;47.980;11.652;2023-03-11T01:29:33;8.50;50.20
50758;DHT22;36732;47.980;11.652;2023-03-11T01:31:58;8.50;50.40
50758;DHT22;36732;47.980;11.652;2023-03-11T01:34:24;8.50;50.30
50758;DHT22;36732;47.980;11.652;2023-03-11T01:36:50;8.50;50.40
50758;DHT22;36732;47.980;11.652;2023-03-11T01:39:16;8.50;50.50
50758;DHT22;36732;47.980;11.652;2023-03-11T01:41:41;8.50;50.50
50758;DHT22;36732;47.980;11.652;2023-03-11T01:44:10;8.50;50.50
50758;DHT22;36732;47.980;11.652;2023-03-11T01:49:27;8.50;50.30
50758;DHT22;36732;47.980;11.652;2023-03-11T01:51:55;8.50;50.50
50758;DHT22;36732;47.980;11.652;2023-03-11T01:54:34;8.50;50.60
50758;DHT22;36732;47.980;11.652;2023-03-11T01:57:04;8.50;50.50
50758;DHT22;36732;47.980;11.652;2023-03-11T01:59:33;8.50;50.50
50758;DHT22;36732;47.980;11.652;2023-03-11T02:04:38;8.50;50.40
50758;DHT22;36732;47.980;11.652;2023-03-11T02:07:06;8.50;50.70
50758;DHT22;36732;47.980;11.652;2023-03-11T02:09:33;8.50;50.70
50758;DHT22;36732;47.980;11.652;2023-03-11T02:11:59;8.50;50.70
50758;DHT22;36732;47.980;11.652;2023-03-11T02:14:28;8.50;50.70
50758;DHT22;36732;47.980;11.652;2023-03-11T02:16:55;8.50;50.60
50758;DHT22;36732;47.980;11.652;2023-03-11T02:19:45;8.50;50.70
50758;DHT22;36732;47.980;11.652;2023-03-11T02:22:26;8.50;50.60
50758;DHT22;36732;47.980;11.652;2023-03-11T02:28:14;8.50;50.50
50758;DHT22;36732;47.980;11.652;2023-03-11T02:30:42;8.50;50.80
50758;DHT22;36732;47.980;11.652;2023-03-11T02:33:09;8.50;50.70
50758;DHT22;36732;47.980;11.652;2023-03-11T02:35:36;8.50;50.80
50758;DHT22;36732;47.980;11.652;2023-03-11T02:38:02;8.40;50.90
50758;DHT22;36732;47.980;11.652;2023-03-11T02:40:34;8.40;50.90
50758;DHT22;36732;47.980;11.652;2023-03-11T02:43:07;8.40;50.70
50758;DHT22;36732;47.980;11.652;2023-03-11T02:45:35;8.40;50.70
50758;DHT22;36732;47.980;11.652;2023-03-11T02:48:01;8.40;50.70
50758;DHT22;36732;47.980;11.652;2023-03-11T02:50:28;8.40;50.60
50758;DHT22;36732;47.980;11.652;2023-03-11T02:52:54;8.40;50.70
50758;DHT22;36732;47.980;11.652;2023-03-11T02:55:20;8.40;50.60
50758;DHT22;36732;47.980;11.652;2023-03-11T02:57:47;8.40;50.70
50758;DHT22;36732;47.980;11.652;2023-03-11T03:00:15;8.30;50.60
50758;DHT22;36732;47.980;11.652;2023-03-11T03:02:43;8.30;50.50
50758;DHT22;36732;47.980;11.652;2023-03-11T03:05:10;8.30;50.60
50758;DHT22;36732;47.980;11.652;2023-03-11T03:07:37;8.30;50.50
50758;DHT22;36732;47.980;11.652;2023-03-11T03:10:04;8.30;50.60
50758;DHT22;36732;47.980;11.652;2023-03-11T03:12:32;8.30;50.60
50758;DHT22;36732;47.980;11.652;2023-03-11T03:14:57;8.30;50.50
50758;DHT22;36732;47.980;11.652;2023-03-11T03:17:24;8.30;50.30
50758;DHT22;36732;47.980;11.652;2023-03-11T03:19:49;8.20;50.40
50758;DHT22;36732;47.980;11.652;2023-03-11T03:22:15;8.20;50.50
50758;DHT22;36732;47.980;11.652;2023-03-11T03:24:41;8.20;50.40
50758;DHT22;36732;47.980;11.652;2023-03-11T03:27:07;8.20;50.30
50758;DHT22;36732;47.980;11.652;2023-03-11T03:29:32;8.20;50.40
50758;DHT22;36732;47.980;11.652;2023-03-11T03:31:58;8.20;50.30
50758;DHT22;36732;47.980;11.652;2023-03-11T03:34:24;8.20;50.10
50758;DHT22;36732;47.980;11.652;2023-03-11T03:36:49;8.20;49.70
50758;DHT22;36732;47.980;11.652;2023-03-11T03:39:15;8.10;49.70
50758;DHT22;36732;47.980;11.652;2023-03-11T03:41:43;8.10;49.60
50758;DHT22;36732;47.980;11.652;2023-03-11T03:44:08;8.10;49.60
50758;DHT22;36732;47.980;11.652;2023-03-11T03:46:34;8.10;49.40
50758;DHT22;36732;47.980;11.652;2023-03-11T03:49:00;8.10;49.50
50758;DHT22;36732;47.980;11.652;2023-03-11T03:51:25;8.10;49.90
50758;DHT22;36732;47.980;11.652;2023-03-11T03:53:51;8.10;49.30
50758;DHT22;36732;47.980;11.652;2023-03-11T03:56:17;8.10;49.30
50758;DHT22;36732;47.980;11.652;2023-03-11T03:58:43;8.10;49.00
50758;DHT22;36732;47.980;11.652;2023-03-11T04:01:10;8.10;49.10
50758;DHT22;36732;47.980;11.652;2023-03-11T04:03:36;8.10;49.10
50758;DHT22;36732;47.980;11.652;2023-03-11T04:06:19;8.00;48.70
50758;DHT22;36732;47.980;11.652;2023-03-11T04:08:47;8.00;48.60
50758;DHT22;36732;47.980;11.652;2023-03-11T04:11:13;8.00;49.00
50758;DHT22;36732;47.980;11.652;2023-03-11T04:13:39;8.00;48.80
50758;DHT22;36732;47.980;11.652;2023-03-11T04:16:06;8.00;48.70
50758;DHT22;36732;47.980;11.652;2023-03-11T04:18:32;8.00;48.70
50758;DHT22;36732;47.980;11.652;2023-03-11T04:20:58;8.00;48.70
50758;DHT22;36732;47.980;11.652;2023-03-11T04:23:24;8.00;48.60
50758;DHT22;36732;47.980;11.652;2023-03-11T04:25:50;8.00;48.50
50758;DHT22;36732;47.980;11.652;2023-03-11T04:28:15;7.90;48.50
50758;DHT22;36732;47.980;11.652;2023-03-11T04:30:41;7.90;48.30
50758;DHT22;36732;47.980;11.652;2023-03-11T04:33:07;7.90;48.20
50758;DHT22;36732;47.980;11.652;2023-03-11T04:35:33;7.90;48.40
50758;DHT22;36732;47.980;11.652;2023-03-11T04:37:59;7.90;48.20
50758;DHT22;36732;47.980;11.652;2023-03-11T04:40:25;7.90;48.20
50758;DHT22;36732;47.980;11.652;2023-03-11T04:42:52;7.90;48.20
50758;DHT22;36732;47.980;11.652;2023-03-11T04:45:18;7.80;48.00
50758;DHT22;36732;47.980;11.652;2023-03-11T04:47:47;7.90;47.80
50758;DHT22;36732;47.980;11.652;2023-03-11T04:50:13;7.80;47.70
50758;DHT22;36732;47.980;11.652;2023-03-11T04:52:39;7.80;48.10
50758;DHT22;36732;47.980;11.652;2023-03-11T04:55:05;7.80;47.70
50758;DHT22;36732;47.980;11.652;2023-03-11T04:57:32;7.80;47.80
50758;DHT22;36732;47.980;11.652;2023-03-11T04:59:58;7.80;47.80
50758;DHT22;36732;47.980;11.652;2023-03-11T05:02:23;7.80;47.90
50758;DHT22;36732;47.980;11.652;2023-03-11T05:04:49;7.80;48.00
50758;DHT22;36732;47.980;11.652;2023-03-11T05:07:15;7.80;47.80
50758;DHT22;36732;47.980;11.652;2023-03-11T05:09:41;7.80;47.90
50758;DHT22;36732;47.980;11.652;2023-03-11T05:12:06;7.80;47.90
50758;DHT22;36732;47.980;11.652;2023-03-11T05:14:34;7.80;47.80
50758;DHT22;36732;47.980;11.652;2023-03-11T05:16:59;7.70;47.90
50758;DHT22;36732;47.980;11.652;2023-03-11T05:19:25;7.70;47.80
50758;DHT22;36732;47.980;11.652;2023-03-11T05:21:58;7.70;47.80
50758;DHT22;36732;47.980;11.652;2023-03-11T05:24:24;7.70;47.80
50758;DHT22;36732;47.980;11.652;2023-03-11T05:26:52;7.70;47.80
50758;DHT22;36732;47.980;11.652;2023-03-11T05:29:18;7.70;47.60
50758;DHT22;36732;47.980;11.652;2023-03-11T05:31:44;7.70;47.40
50758;DHT22;36732;47.980;11.652;2023-03-11T05:34:11;7.70;47.40
50758;DHT22;36732;47.980;11.652;2023-03-11T05:36:37;7.60;47.60
50758;DHT22;36732;47.980;11.652;2023-03-11T05:39:03;7.60;47.60
50758;DHT22;36732;47.980;11.652;2023-03-11T05:41:29;7.60;47.70
50758;DHT22;36732;47.980;11.652;2023-03-11T05:43:55;7.60;47.80
50758;DHT22;36732;47.980;11.652;2023-03-11T05:46:20;7.60;47.80
50758;DHT22;36732;47.980;11.652;2023-03-11T05:48:46;7.60;47.90
50758;DHT22;36732;47.980;11.652;2023-03-11T05:51:12;7.60;47.90
50758;DHT22;36732;47.980;11.652;2023-03-11T05:53:41;7.60;47.90
50758;DHT22;36732;47.980;11.652;2023-03-11T05:56:13;7.60;47.90
50758;DHT22;36732;47.980;11.652;2023-03-11T05:58:42;7.60;47.70
50758;DHT22;36732;47.980;11.652;2023-03-11T06:01:09;7.60;47.80
50758;DHT22;36732;47.980;11.652;2023-03-11T06:03:37;7.50;47.70
50758;DHT22;36732;47.980;11.652;2023-03-11T06:06:04;7.50;47.80
50758;DHT22;36732;47.980;11.652;2023-03-11T06:08:32;7.50;47.60
50758;DHT22;36732;47.980;11.652;2023-03-11T06:11:02;7.50;47.80
50758;DHT22;36732;47.980;11.652;2023-03-11T06:13:28;7.50;47.90
50758;DHT22;36732;47.980;11.652;2023-03-11T06:15:54;7.50;48.00
50758;DHT22;36732;47.980;11.652;2023-03-11T06:18:20;7.50;48.00
50758;DHT22;36732;47.980;11.652;2023-03-11T06:20:46;7.50;47.90
50758;DHT22;36732;47.980;11.652;2023-03-11T06:23:11;7.50;48.00
50758;DHT22;36732;47.980;11.652;2023-03-11T06:25:37;7.40;47.80
50758;DHT22;36732;47.980;11.652;2023-03-11T06:28:03;7.40;47.90
50758;DHT22;36732;47.980;11.652;2023-03-11T06:30:29;7.40;48.00
50758;DHT22;36732;47.980;11.652;2023-03-11T06:32:55;7.40;48.10
50758;DHT22;36732;47.980;11.652;2023-03-11T06:35:21;7.40;48.00
50758;DHT22;36732;47.980;11.652;2023-03-11T06:37:46;7.30;48.00
50758;DHT22;36732;47.980;11.652;2023-03-11T06:40:12;7.30;48.20
50758;DHT22;36732;47.980;11.652;2023-03-11T06:42:38;7.30;48.30
50758;DHT22;36732;47.980;11.652;2023-03-11T06:45:05;7.30;48.00
50758;DHT22;36732;47.980;11.652;2023-03-11T06:47:31;7.30;48.00
50758;DHT22;36732;47.980;11.652;2023-03-11T06:49:57;7.30;48.30
50758;DHT22;36732;47.980;11.652;2023-03-11T06:52:22;7.20;48.30
50758;DHT22;36732;47.980;11.652;2023-03-11T06:54:48;7.20;48.50
50758;DHT22;36732;47.980;11.652;2023-03-11T06:57:15;7.20;48.40
50758;DHT22;36732;47.980;11.652;2023-03-11T06:59:41;7.20;48.20
50758;DHT22;36732;47.980;11.652;2023-03-11T07:02:09;7.20;48.10
50758;DHT22;36732;47.980;11.652;2023-03-11T07:04:36;7.20;48.10
50758;DHT22;36732;47.980;11.652;2023-03-11T07:07:02;7.20;48.30
50758;DHT22;36732;47.980;11.652;2023-03-11T07:09:28;7.20;48.30
50758;DHT22;36732;47.980;11.652;2023-03-11T07:11:54;7.20;48.30
50758;DHT22;36732;47.980;11.652;2023-03-11T07:14:19;7.20;48.40
50758;DHT22;36732;47.980;11.652;2023-03-11T07:16:45;7.20;48.40
50758;DHT22;36732;47.980;11.652;2023-03-11T07:19:12;7.20;48.30
50758;DHT22;36732;47.980;11.652;2023-03-11T07:21:38;7.30;48.20
50758;DHT22;36732;47.980;11.652;2023-03-11T07:24:05;7.30;47.90
50758;DHT22;36732;47.980;11.652;2023-03-11T07:26:32;7.30;47.80
50758;DHT22;36732;47.980;11.652;2023-03-11T07:28:58;7.30;47.90
50758;DHT22;36732;47.980;11.652;2023-03-11T07:31:31;7.20;47.90
50758;DHT22;36732;47.980;11.652;2023-03-11T07:33:58;7.20;47.90
50758;DHT22;36732;47.980;11.652;2023-03-11T07:36:26;7.30;48.20
50758;DHT22;36732;47.980;11.652;2023-03-11T07:39:00;7.30;47.60
50758;DHT22;36732;47.980;11.652;2023-03-11T07:41:29;7.30;47.10
50758;DHT22;36732;47.980;11.652;2023-03-11T07:43:58;7.30;47.30
50758;DHT22;36732;47.980;11.652;2023-03-11T07:46:25;7.20;46.90
50758;DHT22;36732;47.980;11.652;2023-03-11T07:48:52;7.20;46.90
50758;DHT22;36732;47.980;11.652;2023-03-11T07:51:20;7.20;47.00
50758;DHT22;36732;47.980;11.652;2023-03-11T07:53:52;7.20;47.20
50758;DHT22;36732;47.980;11.652;2023-03-11T07:56:20;7.20;47.30
50758;DHT22;36732;47.980;11.652;2023-03-11T07:58:48;7.20;47.20
50758;DHT22;36732;47.980;11.652;2023-03-11T08:01:20;7.20;46.90
50758;DHT22;36732;47.980;11.652;2023-03-11T08:03:48;7.20;46.80
50758;DHT22;36732;47.980;11.652;2023-03-11T08:06:18;7.20;46.90
50758;DHT22;36732;47.980;11.652;2023-03-11T08:08:47;7.20;46.50
50758;DHT22;36732;47.980;11.652;2023-03-11T08:11:13;7.20;46.60
50758;DHT22;36732;47.980;11.652;2023-03-11T08:13:41;7.20;46.20
50758;DHT22;36732;47.980;11.652;2023-03-11T08:16:09;7.10;46.00
50758;DHT22;36732;47.980;11.652;2023-03-11T08:18:36;7.10;45.80
50758;DHT22;36732;47.980;11.652;2023-03-11T08:21:12;7.10;46.10
50758;DHT22;36732;47.980;11.652;2023-03-11T08:23:39;7.10;45.60
50758;DHT22;36732;47.980;11.652;2023-03-11T08:26:06;7.10;46.20
50758;DHT22;36732;47.980;11.652;2023-03-11T08:28:33;7.10;46.40
50758;DHT22;36732;47.980;11.652;2023-03-11T08:30:59;7.10;46.80
50758;DHT22;36732;47.980;11.652;2023-03-11T08:33:26;7.10;46.70
50758;DHT22;36732;47.980;11.652;2023-03-11T08:35:52;7.10;46.60
50758;DHT22;36732;47.980;11.652;2023-03-11T08:38:18;7.10;46.40
50758;DHT22;36732;47.980;11.652;2023-03-11T08:40:43;7.10;46.60
50758;DHT22;36732;47.980;11.652;2023-03-11T08:43:12;7.10;46.60
50758;DHT22;36732;47.980;11.652;2023-03-11T08:45:40;7.10;46.50
50758;DHT22;36732;47.980;11.652;2023-03-11T08:48:06;7.10;46.60
50758;DHT22;36732;47.980;11.652;2023-03-11T08:50:34;7.10;46.60
50758;DHT22;36732;47.980;11.652;2023-03-11T08:53:00;7.20;46.80
50758;DHT22;36732;47.980;11.652;2023-03-11T08:55:27;7.20;47.00
50758;DHT22;36732;47.980;11.652;2023-03-11T08:57:54;7.20;47.10
50758;DHT22;36732;47.980;11.652;2023-03-11T09:00:20;7.20;46.70
50758;DHT22;36732;47.980;11.652;2023-03-11T09:02:47;7.20;46.40
50758;DHT22;36732;47.980;11.652;2023-03-11T09:05:13;7.20;46.50
50758;DHT22;36732;47.980;11.652;2023-03-11T09:07:39;7.20;46.60
50758;DHT22;36732;47.980;11.652;2023-03-11T09:10:05;7.30;46.90
50758;DHT22;36732;47.980;11.652;2023-03-11T09:12:32;7.30;46.60
50758;DHT22;36732;47.980;11.652;2023-03-11T09:14:58;7.30;46.80
50758;DHT22;36732;47.980;11.652;2023-03-11T09:17:24;7.30;47.00
50758;DHT22;36732;47.980;11.652;2023-03-11T09:19:49;7.30;46.80
50758;DHT22;36732;47.980;11.652;2023-03-11T09:22:15;7.30;46.90
50758;DHT22;36732;47.980;11.652;2023-03-11T09:24:41;7.30;46.60
50758;DHT22;36732;47.980;11.652;2023-03-11T09:27:06;7.30;46.70
50758;DHT22;36732;47.980;11.652;2023-03-11T09:29:32;7.30;46.80
50758;DHT22;36732;47.980;11.652;2023-03-11T09:31:58;7.30;46.70
50758;DHT22;36732;47.980;11.652;2023-03-11T09:34:24;7.40;46.90
50758;DHT22;36732;47.980;11.652;2023-03-11T09:36:49;7.30;47.00
50758;DHT22;36732;47.980;11.652;2023-03-11T09:39:15;7.40;46.80
50758;DHT22;36732;47.980;11.652;2023-03-11T09:42:04;7.40;46.60
50758;DHT22;36732;47.980;11.652;2023-03-11T09:50:32;7.40;46.90
50758;DHT22;36732;47.980;11.652;2023-03-11T09:53:36;7.40;46.60
50758;DHT22;36732;47.980;11.652;2023-03-11T09:56:04;7.40;46.30
50758;DHT22;36732;47.980;11.652;2023-03-11T09:58:42;7.50;47.10
50758;DHT22;36732;47.980;11.652;2023-03-11T10:03:51;7.50;46.60
50758;DHT22;36732;47.980;11.652;2023-03-11T10:06:24;7.50;46.70
50758;DHT22;36732;47.980;11.652;2023-03-11T10:21:52;7.40;45.70
50758;DHT22;36732;47.980;11.652;2023-03-11T10:27:14;7.40;46.30
50758;DHT22;36732;47.980;11.652;2023-03-11T10:29:48;7.40;46.50
50758;DHT22;36732;47.980;11.652;2023-03-11T10:32:47;7.40;46.20
50758;DHT22;36732;47.980;11.652;2023-03-11T10:35:19;7.40;46.10
50758;DHT22;36732;47.980;11.652;2023-03-11T10:37:57;7.40;46.10
50758;DHT22;36732;47.980;11.652;2023-03-11T10:40:29;7.40;46.20
50758;DHT22;36732;47.980;11.652;2023-03-11T10:43:00;7.40;45.80
50758;DHT22;36732;47.980;11.652;2023-03-11T10:45:35;7.40;46.00
50758;DHT22;36732;47.980;11.652;2023-03-11T10:48:16;7.50;46.40
50758;DHT22;36732;47.980;11.652;2023-03-11T10:53:17;7.50;46.50
50758;DHT22;36732;47.980;11.652;2023-03-11T10:55:57;7.50;46.50
50758;DHT22;36732;47.980;11.652;2023-03-11T10:58:26;7.50;46.10
50758;DHT22;36732;47.980;11.652;2023-03-11T11:01:00;7.60;46.10
50758;DHT22;36732;47.980;11.652;2023-03-11T11:03:26;7.60;45.40
50758;DHT22;36732;47.980;11.652;2023-03-11T11:05:58;7.60;45.80
50758;DHT22;36732;47.980;11.652;2023-03-11T11:08:28;7.60;45.20
50758;DHT22;36732;47.980;11.652;2023-03-11T11:11:00;7.60;45.80
50758;DHT22;36732;47.980;11.652;2023-03-11T11:13:30;7.60;46.00
50758;DHT22;36732;47.980;11.652;2023-03-11T11:16:17;7.60;45.70
50758;DHT22;36732;47.980;11.652;2023-03-11T11:18:48;7.60;45.30
50758;DHT22;36732;47.980;11.652;2023-03-11T11:22:10;7.60;45.50
50758;DHT22;36732;47.980;11.652;2023-03-11T11:24:23;7.60;45.10
50758;DHT22;36732;47.980;11.652;2023-03-11T11:27:14;7.60;45.50
50758;DHT22;36732;47.980;11.652;2023-03-11T11:29:41;7.60;45.60
50758;DHT22;36732;47.980;11.652;2023-03-11T11:32:19;7.60;46.00
50758;DHT22;36732;47.980;11.652;2023-03-11T11:34:55;7.60;45.80
50758;DHT22;36732;47.980;11.652;2023-03-11T11:37:24;7.70;46.20
50758;DHT22;36732;47.980;11.652;2023-03-11T11:39:59;7.70;46.20
50758;DHT22;36732;47.980;11.652;2023-03-11T11:42:36;7.70;45.90
50758;DHT22;36732;47.980;11.652;2023-03-11T11:45:26;7.70;45.50
50758;DHT22;36732;47.980;11.652;2023-03-11T11:47:58;7.70;45.40
50758;DHT22;36732;47.980;11.652;2023-03-11T11:50:37;7.70;45.60
50758;DHT22;36732;47.980;11.652;2023-03-11T11:53:24;7.70;45.50
50758;DHT22;36732;47.980;11.652;2023-03-11T11:55:53;7.80;45.70
50758;DHT22;36732;47.980;11.652;2023-03-11T11:58:22;7.80;45.80
50758;DHT22;36732;47.980;11.652;2023-03-11T12:01:09;7.80;45.80
50758;DHT22;36732;47.980;11.652;2023-03-11T12:03:52;7.80;45.90
50758;DHT22;36732;47.980;11.652;2023-03-11T12:06:28;7.80;45.60
50758;DHT22;36732;47.980;11.652;2023-03-11T12:09:02;7.80;45.60
50758;DHT22;36732;47.980;11.652;2023-03-11T12:14:45;7.90;45.40
50758;DHT22;36732;47.980;11.652;2023-03-11T12:17:16;7.80;44.70
50758;DHT22;36732;47.980;11.652;2023-03-11T12:25:23;7.90;44.90
50758;DHT22;36732;47.980;11.652;2023-03-11T12:28:37;7.90;44.60
50758;DHT22;36732;47.980;11.652;2023-03-11T12:31:10;7.90;45.10
50758;DHT22;36732;47.980;11.652;2023-03-11T12:33:47;7.90;44.60
50758;DHT22;36732;47.980;11.652;2023-03-11T12:36:39;7.90;45.10
50758;DHT22;36732;47.980;11.652;2023-03-11T12:39:30;7.90;45.20
50758;DHT22;36732;47.980;11.652;2023-03-11T12:44:39;7.90;45.30
50758;DHT22;36732;47.980;11.652;2023-03-11T12:54:44;8.00;45.60
50758;DHT22;36732;47.980;11.652;2023-03-11T12:57:32;8.00;45.40
50758;DHT22;36732;47.980;11.652;2023-03-11T13:05:30;8.10;45.70
50758;DHT22;36732;47.980;11.652;2023-03-11T13:08:26;8.10;45.10
50758;DHT22;36732;47.980;11.652;2023-03-11T13:10:55;8.00;43.70
50758;DHT22;36732;47.980;11.652;2023-03-11T13:18:39;8.10;44.50
50758;DHT22;36732;47.980;11.652;2023-03-11T13:30:02;8.10;44.20
50758;DHT22;36732;47.980;11.652;2023-03-11T13:41:29;8.10;45.50
50758;DHT22;36732;47.980;11.652;2023-03-11T13:44:04;8.10;44.10
50758;DHT22;36732;47.980;11.652;2023-03-11T13:46:42;8.10;44.40
50758;DHT22;36732;47.980;11.652;2023-03-11T13:49:25;8.20;44.20
50758;DHT22;36732;47.980;11.652;2023-03-11T13:51:56;8.10;44.00
50758;DHT22;36732;47.980;11.652;2023-03-11T13:55:18;8.10;44.40
50758;DHT22;36732;47.980;11.652;2023-03-11T13:57:33;8.10;44.20
50758;DHT22;36732;47.980;11.652;2023-03-11T14:00:14;8.10;44.70
50758;DHT22;36732;47.980;11.652;2023-03-11T14:02:48;8.20;44.20
50758;DHT22;36732;47.980;11.652;2023-03-11T14:05:19;8.10;44.40
50758;DHT22;36732;47.980;11.652;2023-03-11T14:07:47;8.20;44.40
50758;DHT22;36732;47.980;11.652;2023-03-11T14:12:51;8.20;43.90
50758;DHT22;36732;47.980;11.652;2023-03-11T14:15:32;8.20;44.10
50758;DHT22;36732;47.980;11.652;2023-03-11T14:21:14;8.20;43.80
50758;DHT22;36732;47.980;11.652;2023-03-11T14:23:52;8.20;44.40
50758;DHT22;36732;47.980;11.652;2023-03-11T14:26:33;8.20;44.30
50758;DHT22;36732;47.980;11.652;2023-03-11T14:29:06;8.20;44.30
50758;DHT22;36732;47.980;11.652;2023-03-11T14:31:35;8.20;44.70
50758;DHT22;36732;47.980;11.652;2023-03-11T14:34:23;8.20;45.00
50758;DHT22;36732;47.980;11.652;2023-03-11T14:36:51;8.20;44.80
50758;DHT22;36732;47.980;11.652;2023-03-11T14:39:34;8.20;45.00
50758;DHT22;36732;47.980;11.652;2023-03-11T14:42:25;8.30;44.70
50758;DHT22;36732;47.980;11.652;2023-03-11T14:50:21;8.30;45.00
50758;DHT22;36732;47.980;11.652;2023-03-11T14:55:47;8.30;45.30
50758;DHT22;36732;47.980;11.652;2023-03-11T15:01:16;8.30;45.10
50758;DHT22;36732;47.980;11.652;2023-03-11T15:03:55;8.30;45.30
50758;DHT22;36732;47.980;11.652;2023-03-11T15:06:26;8.30;44.30
50758;DHT22;36732;47.980;11.652;2023-03-11T15:09:12;8.30;44.10
50758;DHT22;36732;47.980;11.652;2023-03-11T15:11:59;8.40;43.10
50758;DHT22;36732;47.980;11.652;2023-03-11T15:17:27;8.40;43.50
50758;DHT22;36732;47.980;11.652;2023-03-11T15:19:55;8.30;43.10
50758;DHT22;36732;47.980;11.652;2023-03-11T15:24:52;8.30;43.40
50758;DHT22;36732;47.980;11.652;2023-03-11T15:27:29;8.30;43.30
50758;DHT22;36732;47.980;11.652;2023-03-11T15:29:57;8.30;43.00
50758;DHT22;36732;47.980;11.652;2023-03-11T15:32:41;8.30;43.20
50758;DHT22;36732;47.980;11.652;2023-03-11T15:37:36;8.30;43.70
50758;DHT22;36732;47.980;11.652;2023-03-11T15:40:21;8.30;43.70
50758;DHT22;36732;47.980;11.652;2023-03-11T15:43:20;8.30;43.20
50758;DHT22;36732;47.980;11.652;2023-03-11T15:45:50;8.30;43.30
50758;DHT22;36732;47.980;11.652;2023-03-11T15:48:18;8.30;43.70
50758;DHT22;36732;47.980;11.652;2023-03-11T15:53:14;8.30;43.20
50758;DHT22;36732;47.980;11.652;2023-03-11T15:55:40;8.30;43.30
50758;DHT22;36732;47.980;11.652;2023-03-11T15:58:07;8.30;43.30
50758;DHT22;36732;47.980;11.652;2023-03-11T16:00:34;8.30;43.00
50758;DHT22;36732;47.980;11.652;2023-03-11T16:03:01;8.20;43.10
50758;DHT22;36732;47.980;11.652;2023-03-11T16:05:28;8.30;43.10
50758;DHT22;36732;47.980;11.652;2023-03-11T16:07:53;8.20;42.90
50758;DHT22;36732;47.980;11.652;2023-03-11T16:10:21;8.20;43.20
50758;DHT22;36732;47.980;11.652;2023-03-11T16:12:48;8.20;42.90
50758;DHT22;36732;47.980;11.652;2023-03-11T16:15:21;8.20;43.30
50758;DHT22;36732;47.980;11.652;2023-03-11T16:17:50;8.20;43.30
50758;DHT22;36732;47.980;11.652;2023-03-11T16:20:18;8.10;43.50
50758;DHT22;36732;47.980;11.652;2023-03-11T16:22:45;8.10;43.30
50758;DHT22;36732;47.980;11.652;2023-03-11T16:25:33;8.10;43.50
50758;DHT22;36732;47.980;11.652;2023-03-11T16:28:01;8.10;43.00
50758;DHT22;36732;47.980;11.652;2023-03-11T16:30:30;8.10;43.40
50758;DHT22;36732;47.980;11.652;2023-03-11T16:32:57;8.10;43.40
50758;DHT22;36732;47.980;11.652;2023-03-11T16:35:23;8.10;43.30
50758;DHT22;36732;47.980;11.652;2023-03-11T16:37:49;8.10;43.30
50758;DHT22;36732;47.980;11.652;2023-03-11T16:40:19;8.10;43.30
50758;DHT22;36732;47.980;11.652;2023-03-11T16:42:59;8.10;43.10
50758;DHT22;36732;47.980;11.652;2023-03-11T16:45:26;8.10;43.20
50758;DHT22;36732;47.980;11.652;2023-03-11T16:47:52;8.10;43.30
50758;DHT22;36732;47.980;11.652;2023-03-11T16:50:17;8.10;43.50
50758;DHT22;36732;47.980;11.652;2023-03-11T16:52:45;8.00;43.50
50758;DHT22;36732;47.980;11.652;2023-03-11T16:55:11;8.00;43.50
50758;DHT22;36732;47.980;11.652;2023-03-11T16:57:37;8.00;43.50
50758;DHT22;36732;47.980;11.652;2023-03-11T17:00:05;8.00;43.70
50758;DHT22;36732;47.980;11.652;2023-03-11T17:02:34;8.00;43.90
50758;DHT22;36732;47.980;11.652;2023-03-11T17:05:01;8.00;43.80
50758;DHT22;36732;47.980;11.652;2023-03-11T17:07:27;8.00;43.80
50758;DHT22;36732;47.980;11.652;2023-03-11T17:09:53;8.00;43.80
50758;DHT22;36732;47.980;11.652;2023-03-11T17:12:19;8.00;43.80
50758;DHT22;36732;47.980;11.652;2023-03-11T17:14:45;8.00;43.80
50758;DHT22;36732;47.980;11.652;2023-03-11T17:17:11;7.90;43.80
50758;DHT22;36732;47.980;11.652;2023-03-11T17:19:37;7.90;44.10
50758;DHT22;36732;47.980;11.652;2023-03-11T17:22:03;7.90;44.20
50758;DHT22;36732;47.980;11.652;2023-03-11T17:24:29;7.90;44.40
50758;DHT22;36732;47.980;11.652;2023-03-11T17:26:55;7.90;44.60
50758;DHT22;36732;47.980;11.652;2023-03-11T17:29:21;7.90;44.60
50758;DHT22;36732;47.980;11.652;2023-03-11T17:31:46;7.90;44.60
50758;DHT22;36732;47.980;11.652;2023-03-11T17:34:12;7.90;44.30
50758;DHT22;36732;47.980;11.652;2023-03-11T17:36:39;7.90;44.30